createdAt,value
2019-05-10T00:01:26.265Z,97.60
2019-05-10T00:04:04.501Z,97.40
2019-05-10T00:06:43.033Z,97.50
2019-05-10T00:09:03.988Z,97.60
2019-05-10T00:11:34.885Z,98.00
2019-05-10T00:13:56.399Z,97.60
2019-05-10T00:16:16.497Z,97.50
2019-05-10T00:18:36.650Z,97.40
2019-05-10T00:20:57.027Z,97.50
2019-05-10T00:23:16.811Z,97.70
2019-05-10T00:25:36.574Z,97.70
2019-05-10T00:27:56.327Z,97.90
2019-05-10T00:30:16.537Z,98.10
2019-05-10T00:32:36.191Z,98.20
2019-05-10T00:34:55.993Z,98.30
2019-05-10T00:37:15.817Z,98.30
2019-05-10T00:39:35.725Z,98.50
2019-05-10T00:41:55.674Z,98.60
2019-05-10T00:44:15.595Z,98.60
2019-05-10T00:46:35.474Z,98.50
2019-05-10T00:48:55.377Z,98.50
2019-05-10T00:51:15.451Z,98.50
2019-05-10T00:53:35.314Z,98.60
2019-05-10T00:55:55.608Z,98.70
2019-05-10T00:58:16.024Z,98.70
2019-05-10T01:00:36.285Z,98.60
2019-05-10T01:02:56.346Z,98.60
2019-05-10T01:05:16.425Z,99.00
2019-05-10T01:07:36.538Z,99.00
2019-05-10T01:09:56.053Z,98.60
2019-05-10T01:12:16.196Z,98.50
2019-05-10T01:14:36.157Z,98.50
2019-05-10T01:16:55.831Z,98.60
2019-05-10T01:19:15.629Z,98.50
2019-05-10T01:21:35.705Z,98.90
2019-05-10T01:23:55.684Z,98.30
2019-05-10T01:26:15.795Z,98.40
2019-05-10T01:28:35.304Z,98.30
2019-05-10T01:30:55.115Z,98.70
2019-05-10T01:33:14.837Z,98.20
2019-05-10T01:35:34.541Z,98.10
2019-05-10T01:37:54.752Z,98.00
2019-05-10T01:40:14.901Z,98.20
2019-05-10T01:42:34.613Z,98.00
2019-05-10T01:44:54.826Z,98.00
2019-05-10T01:47:14.805Z,97.80
2019-05-10T01:49:34.861Z,97.90
2019-05-10T01:51:54.843Z,97.70
2019-05-10T01:54:14.860Z,97.80
2019-05-10T01:56:34.549Z,97.60
2019-05-10T01:58:54.685Z,97.50
2019-05-10T02:01:14.650Z,97.50
2019-05-10T02:03:34.518Z,97.40
2019-05-10T02:05:54.317Z,97.40
2019-05-10T02:08:14.072Z,97.50
2019-05-10T02:10:33.944Z,97.50
2019-05-10T02:12:53.720Z,97.30
2019-05-10T02:15:13.841Z,97.30
2019-05-10T02:17:33.718Z,97.30
2019-05-10T02:19:54.022Z,97.30
2019-05-10T02:22:13.734Z,97.20
2019-05-10T02:24:33.701Z,97.20
2019-05-10T02:26:53.724Z,97.20
2019-05-10T02:29:13.697Z,97.00
2019-05-10T02:31:34.028Z,97.00
2019-05-10T02:33:54.160Z,97.10
2019-05-10T02:36:13.962Z,96.80
2019-05-10T02:38:33.794Z,96.80
2019-05-10T02:40:53.286Z,97.20
2019-05-10T02:43:14.212Z,96.60
2019-05-10T02:45:34.105Z,97.10
2019-05-10T02:47:53.611Z,96.80
2019-05-10T02:50:13.390Z,96.70
2019-05-10T02:52:33.449Z,97.10
2019-05-10T02:54:53.926Z,96.70
2019-05-10T02:57:13.901Z,96.80
2019-05-10T02:59:34.099Z,96.80
2019-05-10T03:01:55.305Z,96.70
2019-05-10T03:04:14.806Z,96.70
2019-05-10T03:06:35.449Z,96.80
2019-05-10T03:08:55.457Z,96.60
2019-05-10T03:11:15.409Z,96.60
2019-05-10T03:13:35.359Z,96.40
2019-05-10T03:15:55.341Z,96.30
2019-05-10T03:18:16.595Z,96.40
2019-05-10T03:20:36.585Z,96.40
2019-05-10T03:22:56.526Z,95.80
2019-05-10T03:25:16.449Z,95.90
2019-05-10T03:27:36.216Z,95.80
2019-05-10T03:29:56.299Z,95.80
2019-05-10T03:32:16.131Z,95.90
2019-05-10T03:34:36.062Z,96.00
2019-05-10T03:36:56.051Z,95.90
2019-05-10T03:39:16.462Z,95.70
2019-05-10T03:41:36.571Z,96.30
2019-05-10T03:43:56.284Z,96.00
2019-05-10T03:46:16.382Z,96.00
2019-05-10T03:48:35.830Z,96.00
2019-05-10T03:50:55.611Z,96.40
2019-05-10T03:53:15.292Z,95.90
2019-05-10T03:55:35.053Z,96.30
2019-05-10T03:57:54.843Z,96.00
2019-05-10T04:00:15.030Z,96.00
2019-05-10T04:02:34.939Z,96.50
2019-05-10T04:04:54.791Z,96.30
2019-05-10T04:07:14.506Z,96.30
2019-05-10T04:09:34.590Z,96.40
2019-05-10T04:11:54.748Z,96.40
2019-05-10T04:14:14.498Z,96.50
2019-05-10T04:16:34.472Z,96.30
2019-05-10T04:18:54.424Z,96.90
2019-05-10T04:21:14.145Z,96.40
2019-05-10T04:23:34.102Z,96.30
2019-05-10T04:25:54.935Z,96.20
2019-05-10T04:28:14.888Z,96.30
2019-05-10T04:30:34.825Z,95.80
2019-05-10T04:32:54.675Z,96.10
2019-05-10T04:35:14.761Z,96.30
2019-05-10T04:37:35.453Z,95.80
2019-05-10T04:39:54.977Z,95.70
2019-05-10T04:42:14.687Z,96.00
2019-05-10T04:44:34.786Z,95.70
2019-05-10T04:46:54.871Z,95.60
2019-05-10T04:49:14.849Z,96.10
2019-05-10T04:51:34.639Z,95.50
2019-05-10T04:53:54.301Z,95.70
2019-05-10T04:56:14.210Z,95.70
2019-05-10T04:58:34.277Z,95.70
2019-05-10T05:00:54.337Z,95.50
2019-05-10T05:03:14.110Z,95.80
2019-05-10T05:05:34.068Z,95.90
2019-05-10T05:07:53.829Z,96.00
2019-05-10T05:10:13.658Z,96.20
2019-05-10T05:12:33.952Z,96.60
2019-05-10T05:14:54.047Z,96.20
2019-05-10T05:17:14.044Z,96.50
2019-05-10T05:19:34.086Z,96.60
2019-05-10T05:21:54.213Z,96.80
2019-05-10T05:24:16.946Z,97.40
2019-05-10T05:26:36.293Z,97.20
2019-05-10T05:28:56.330Z,97.10
2019-05-10T05:31:16.322Z,97.60
2019-05-10T05:33:37.663Z,97.30
2019-05-10T05:35:57.585Z,97.60
2019-05-10T05:38:17.630Z,97.70
2019-05-10T05:40:37.414Z,97.70
2019-05-10T05:42:57.292Z,98.10
2019-05-10T05:45:17.473Z,97.60
2019-05-10T05:47:41.833Z,97.60
2019-05-10T05:49:59.358Z,97.70
2019-05-10T05:52:19.142Z,97.80
2019-05-10T05:54:38.769Z,97.80
2019-05-10T05:56:58.573Z,97.90
2019-05-10T05:59:23.850Z,98.00
2019-05-10T06:01:41.665Z,98.30
2019-05-10T06:04:06.480Z,98.30
2019-05-10T06:06:23.698Z,98.70
2019-05-10T06:08:43.597Z,98.30
2019-05-10T06:11:03.510Z,98.50
2019-05-10T06:13:29.657Z,98.50
2019-05-10T06:15:45.070Z,98.50
2019-05-10T06:18:09.794Z,98.40
2019-05-10T06:20:27.029Z,98.60
2019-05-10T06:23:05.251Z,98.20
2019-05-10T06:25:08.979Z,98.30
2019-05-10T06:27:28.650Z,98.50
2019-05-10T06:29:47.966Z,98.60
2019-05-10T06:32:07.445Z,98.80
2019-05-10T06:34:32.201Z,98.90
2019-05-10T06:36:49.917Z,99.30
2019-05-10T06:39:10.050Z,98.80
2019-05-10T06:41:32.568Z,99.00
2019-05-10T06:43:53.124Z,98.80
2019-05-10T06:46:13.312Z,99.50
2019-05-10T06:48:33.784Z,99.20
2019-05-10T06:50:53.745Z,99.30
2019-05-10T06:53:14.792Z,99.60
2019-05-10T06:55:34.848Z,99.50
2019-05-10T06:57:59.301Z,99.50
2019-05-10T07:00:16.962Z,99.50
2019-05-10T07:02:36.613Z,99.50
2019-05-10T07:04:55.890Z,99.50
2019-05-10T07:07:22.424Z,99.60
2019-05-10T07:10:01.752Z,99.60
2019-05-10T07:11:58.488Z,99.40
2019-05-10T07:14:18.441Z,99.50
2019-05-10T07:16:37.749Z,99.50
2019-05-10T07:19:00.612Z,99.30
2019-05-10T07:21:20.618Z,99.20
2019-05-10T07:23:44.852Z,99.00
2019-05-10T07:26:01.445Z,99.10
2019-05-10T07:28:21.099Z,99.10
2019-05-10T07:30:41.641Z,99.10
2019-05-10T07:33:02.057Z,99.20
2019-05-10T07:35:23.041Z,99.10
2019-05-10T07:37:47.717Z,99.10
2019-05-10T07:40:05.454Z,99.10
2019-05-10T07:42:24.987Z,98.60
2019-05-10T07:44:46.681Z,98.70
2019-05-10T07:47:05.814Z,98.50
2019-05-10T07:49:30.401Z,98.60
2019-05-10T07:51:46.935Z,98.90
2019-05-10T07:54:06.648Z,98.70
2019-05-10T07:56:26.070Z,98.80
2019-05-10T07:58:45.617Z,98.40
2019-05-10T08:01:05.225Z,98.40
2019-05-10T08:03:25.038Z,97.80
2019-05-10T08:05:46.308Z,97.50
2019-05-10T08:08:06.274Z,98.00
2019-05-10T08:10:25.993Z,97.40
2019-05-10T08:12:48.423Z,96.90
2019-05-10T08:15:08.628Z,97.20
2019-05-10T08:17:28.679Z,97.80
2019-05-10T08:19:48.316Z,97.30
2019-05-10T08:22:09.346Z,97.00
2019-05-10T08:24:29.136Z,97.50
2019-05-10T08:26:48.771Z,97.00
2019-05-10T08:29:13.613Z,96.40
2019-05-10T08:31:31.876Z,96.60
2019-05-10T08:33:57.194Z,96.30
2019-05-10T08:36:13.486Z,96.30
2019-05-10T08:38:33.034Z,96.10
2019-05-10T08:40:52.996Z,95.10
2019-05-10T08:43:16.434Z,94.90
2019-05-10T08:45:38.795Z,94.60
2019-05-10T08:48:01.018Z,95.10
2019-05-10T08:50:34.490Z,95.10
2019-05-10T08:52:39.113Z,95.30
2019-05-10T08:54:58.622Z,95.10
2019-05-10T08:57:18.730Z,94.60
2019-05-10T08:59:38.617Z,94.10
2019-05-10T09:01:58.557Z,94.40
2019-05-10T09:04:19.006Z,94.00
2019-05-10T09:06:38.685Z,94.00
2019-05-10T09:09:03.574Z,94.00
2019-05-10T09:11:20.370Z,93.40
2019-05-10T09:13:45.010Z,93.50
2019-05-10T09:16:02.436Z,93.80
2019-05-10T09:18:23.021Z,93.60
2019-05-10T09:20:42.554Z,92.40
2019-05-10T09:23:02.544Z,93.10
2019-05-10T09:25:29.187Z,93.10
2019-05-10T09:27:44.474Z,91.90
2019-05-10T09:30:08.293Z,93.00
2019-05-10T09:32:28.931Z,92.10
2019-05-10T09:34:48.129Z,91.80
2019-05-10T09:37:12.805Z,91.40
2019-05-10T09:39:32.119Z,91.90
2019-05-10T09:41:52.750Z,92.10
2019-05-10T09:44:13.045Z,91.80
2019-05-10T09:46:32.837Z,92.00
2019-05-10T09:48:54.495Z,92.60
2019-05-10T09:51:14.020Z,92.50
2019-05-10T09:53:38.028Z,92.30
2019-05-10T09:56:02.522Z,92.50
2019-05-10T09:58:22.094Z,92.50
2019-05-10T10:00:40.108Z,92.30
2019-05-10T10:03:01.859Z,91.90
2019-05-10T10:05:22.582Z,91.80
2019-05-10T10:07:42.404Z,92.20
2019-05-10T10:10:01.922Z,90.50
2019-05-10T10:12:21.254Z,90.90
2019-05-10T10:14:43.207Z,91.50
2019-05-10T10:17:03.283Z,90.30
2019-05-10T10:19:24.572Z,90.90
2019-05-10T10:21:44.401Z,88.20
2019-05-10T10:24:12.632Z,89.00
2019-05-10T10:26:26.885Z,90.50
2019-05-10T10:28:49.664Z,91.20
2019-05-10T10:31:08.924Z,91.20
2019-05-10T10:33:29.306Z,90.00
2019-05-10T10:35:50.585Z,90.40
2019-05-10T10:38:10.708Z,91.50
2019-05-10T10:40:35.328Z,91.50
2019-05-10T10:42:52.304Z,91.70
2019-05-10T10:45:12.296Z,91.60
2019-05-10T10:47:32.419Z,91.40
2019-05-10T10:49:52.390Z,90.60
2019-05-10T10:52:13.482Z,89.40
2019-05-10T10:54:36.713Z,90.10
2019-05-10T10:56:54.749Z,90.20
2019-05-10T10:59:14.245Z,87.70
2019-05-10T11:01:49.189Z,88.00
2019-05-10T11:03:55.217Z,87.00
2019-05-10T11:06:15.469Z,86.50
2019-05-10T11:08:35.151Z,86.00
2019-05-10T11:10:54.973Z,86.80
2019-05-10T11:13:23.786Z,85.50
2019-05-10T11:15:36.763Z,85.60
2019-05-10T11:17:56.607Z,84.30
2019-05-10T11:20:15.968Z,82.80
2019-05-10T11:22:35.522Z,82.30
2019-05-10T11:25:03.085Z,82.30
2019-05-10T11:27:17.440Z,83.00
2019-05-10T11:29:37.077Z,83.90
2019-05-10T11:32:14.326Z,83.10
2019-05-10T11:34:18.124Z,82.30
2019-05-10T11:36:40.627Z,79.80
2019-05-10T11:39:01.343Z,80.90
2019-05-10T11:41:23.793Z,82.20
2019-05-10T11:43:42.151Z,78.90
2019-05-10T11:46:01.971Z,79.00
2019-05-10T11:48:21.733Z,77.50
2019-05-10T11:50:41.577Z,76.70
2019-05-10T11:53:01.578Z,74.60
2019-05-10T11:55:21.884Z,76.10
2019-05-10T11:57:44.225Z,77.50
2019-05-10T12:00:04.436Z,79.10
2019-05-10T12:02:37.301Z,77.80
2019-05-10T12:04:45.813Z,78.90
2019-05-10T12:07:08.387Z,78.40
2019-05-10T12:09:26.829Z,78.10
2019-05-10T12:11:51.758Z,77.90
2019-05-10T12:14:07.790Z,77.90
2019-05-10T12:16:27.789Z,78.40
2019-05-10T12:19:05.576Z,76.40
2019-05-10T12:21:11.191Z,76.60
2019-05-10T12:23:31.668Z,77.30
2019-05-10T12:26:50.503Z,74.70
2019-05-10T12:28:15.361Z,76.40
2019-05-10T12:30:37.106Z,78.60
2019-05-10T12:33:04.631Z,75.70
2019-05-10T12:35:18.386Z,74.00
2019-05-10T12:37:39.699Z,74.60
2019-05-10T12:40:06.243Z,78.00
2019-05-10T12:42:21.778Z,76.50
2019-05-10T12:44:43.936Z,77.10
2019-05-10T12:47:02.959Z,78.60
2019-05-10T12:49:22.429Z,75.80
2019-05-10T12:51:43.291Z,75.00
2019-05-10T12:54:03.005Z,75.80
2019-05-10T12:56:23.183Z,72.70
2019-05-10T12:58:42.682Z,78.30
2019-05-10T13:01:02.486Z,70.80
2019-05-10T13:03:25.410Z,67.60
2019-05-10T13:05:52.448Z,70.80
2019-05-10T13:08:06.034Z,73.30
2019-05-10T13:10:25.953Z,75.60
2019-05-10T13:12:47.432Z,73.70
2019-05-10T13:15:07.602Z,73.90
2019-05-10T13:17:27.518Z,72.20
2019-05-10T13:19:47.113Z,69.90
2019-05-10T13:22:07.525Z,70.20
2019-05-10T13:24:27.486Z,70.70
2019-05-10T13:26:47.450Z,75.50
2019-05-10T13:29:08.611Z,72.50
2019-05-10T13:31:28.966Z,67.80
2019-05-10T13:33:49.101Z,63.40
2019-05-10T13:36:09.040Z,67.10
2019-05-10T13:38:29.301Z,65.10
2019-05-10T13:40:49.890Z,67.80
2019-05-10T13:43:10.045Z,67.60
2019-05-10T13:45:31.687Z,65.90
2019-05-10T13:47:51.990Z,65.10
2019-05-10T13:50:12.037Z,66.10
2019-05-10T13:52:37.502Z,66.80
2019-05-10T13:54:56.023Z,67.60
2019-05-10T13:57:15.766Z,68.80
2019-05-10T13:59:35.774Z,71.00
2019-05-10T14:01:55.708Z,67.10
2019-05-10T14:04:16.048Z,67.30
2019-05-10T14:06:35.599Z,69.30
2019-05-10T14:08:55.397Z,65.00
2019-05-10T14:11:15.285Z,63.80
2019-05-10T14:13:35.828Z,62.80
2019-05-10T14:15:56.725Z,65.40
2019-05-10T14:18:16.757Z,64.30
2019-05-10T14:20:36.222Z,65.70
2019-05-10T14:22:58.595Z,65.60
2019-05-10T14:25:17.813Z,65.40
2019-05-10T14:27:38.655Z,62.30
2019-05-10T14:29:58.909Z,63.00
2019-05-10T14:32:18.703Z,63.70
2019-05-10T14:34:44.228Z,68.20
2019-05-10T14:37:00.245Z,69.20
2019-05-10T14:39:20.909Z,68.20
2019-05-10T14:41:45.438Z,62.80
2019-05-10T14:44:02.337Z,62.10
2019-05-10T14:46:22.054Z,64.00
2019-05-10T14:48:41.676Z,62.70
2019-05-10T14:51:02.977Z,64.80
2019-05-10T14:53:25.578Z,70.10
2019-05-10T14:55:45.001Z,73.20
2019-05-10T14:58:04.825Z,72.70
2019-05-10T15:00:24.787Z,70.30
2019-05-10T15:02:44.469Z,71.30
2019-05-10T15:05:08.715Z,71.60
2019-05-10T15:07:26.505Z,71.90
2019-05-10T15:09:46.529Z,70.90
2019-05-10T15:12:10.277Z,69.70
2019-05-10T15:14:27.916Z,65.20
2019-05-10T15:16:47.733Z,71.10
2019-05-10T15:19:07.463Z,66.20
2019-05-10T15:21:28.577Z,72.60
2019-05-10T15:23:48.138Z,66.90
2019-05-10T15:26:11.861Z,70.30
2019-05-10T15:28:34.648Z,65.80
2019-05-10T15:30:52.636Z,68.50
2019-05-10T15:33:12.801Z,66.70
2019-05-10T15:35:33.566Z,67.10
2019-05-10T15:37:53.361Z,69.60
2019-05-10T15:40:13.385Z,69.60
2019-05-10T15:42:36.119Z,69.10
2019-05-10T15:44:54.973Z,68.90
2019-05-10T15:47:20.279Z,67.60
2019-05-10T15:49:36.912Z,70.20
2019-05-10T15:52:15.173Z,73.20
2019-05-10T15:54:18.073Z,69.60
2019-05-10T15:56:41.676Z,70.90
2019-05-10T15:58:59.810Z,70.60
2019-05-10T16:01:26.075Z,69.10
2019-05-10T16:03:41.079Z,68.70
2019-05-10T16:06:01.242Z,77.50
2019-05-10T16:08:23.888Z,71.30
2019-05-10T16:10:42.093Z,65.10
2019-05-10T16:13:01.884Z,66.80
2019-05-10T16:15:21.347Z,62.00
2019-05-10T16:17:40.718Z,61.70
2019-05-10T16:20:01.479Z,63.80
2019-05-10T16:22:25.253Z,66.50
2019-05-10T16:24:42.590Z,66.40
2019-05-10T16:27:02.362Z,73.10
2019-05-10T16:29:22.257Z,65.70
2019-05-10T16:31:41.600Z,64.20
2019-05-10T16:34:01.220Z,64.20
2019-05-10T16:36:23.026Z,65.00
2019-05-10T16:38:42.692Z,66.80
2019-05-10T16:41:02.361Z,66.00
2019-05-10T16:43:24.641Z,67.50
2019-05-10T16:45:44.057Z,63.40
2019-05-10T16:48:05.824Z,65.50
2019-05-10T16:50:31.271Z,62.90
2019-05-10T16:52:47.444Z,69.60
2019-05-10T16:55:09.652Z,63.20
2019-05-10T16:57:31.880Z,62.90
2019-05-10T16:59:50.065Z,64.00
2019-05-10T17:02:11.926Z,70.00
2019-05-10T17:04:36.990Z,67.00
2019-05-10T17:06:54.900Z,72.50
2019-05-10T17:09:18.239Z,73.10
2019-05-10T17:11:35.805Z,72.20
2019-05-10T17:13:55.795Z,71.40
2019-05-10T17:16:17.106Z,70.80
2019-05-10T17:18:36.900Z,70.40
2019-05-10T17:20:56.470Z,70.80
2019-05-10T17:23:15.966Z,70.20
2019-05-10T17:25:35.676Z,71.10
2019-05-10T17:27:59.841Z,70.70
2019-05-10T17:30:21.627Z,70.60
2019-05-10T17:32:40.080Z,70.60
2019-05-10T17:35:04.830Z,70.40
2019-05-10T17:37:21.131Z,69.60
2019-05-10T17:39:40.716Z,69.30
2019-05-10T17:42:03.060Z,69.80
2019-05-10T17:44:23.118Z,69.70
2019-05-10T17:46:43.368Z,69.90
2019-05-10T17:49:02.973Z,69.50
2019-05-10T17:51:22.653Z,69.90
2019-05-10T17:53:42.555Z,69.10
2019-05-10T17:56:02.857Z,69.80
2019-05-10T17:58:27.846Z,69.30
2019-05-10T18:00:44.808Z,69.50
2019-05-10T18:03:04.429Z,69.80
2019-05-10T18:05:24.111Z,69.50
2019-05-10T18:07:44.769Z,70.10
2019-05-10T18:10:05.038Z,70.40
2019-05-10T18:12:27.161Z,70.80
2019-05-10T18:14:50.153Z,71.60
2019-05-10T18:17:08.065Z,71.90
2019-05-10T18:19:28.020Z,72.00
2019-05-10T18:21:47.792Z,72.30
2019-05-10T18:24:07.202Z,72.90
2019-05-10T18:26:26.617Z,73.60
2019-05-10T18:28:46.386Z,74.20
2019-05-10T18:31:05.838Z,74.10
2019-05-10T18:33:25.385Z,74.20
2019-05-10T18:35:47.430Z,74.50
2019-05-10T18:38:07.973Z,75.90
2019-05-10T18:40:31.708Z,76.40
2019-05-10T18:42:49.026Z,76.80
2019-05-10T18:45:08.784Z,76.90
2019-05-10T18:47:28.509Z,76.60
2019-05-10T18:49:47.751Z,76.40
2019-05-10T18:52:07.294Z,76.80
2019-05-10T18:54:26.992Z,77.20
2019-05-10T18:56:46.600Z,76.90
2019-05-10T18:59:07.534Z,77.40
2019-05-10T19:01:32.505Z,76.80
2019-05-10T19:03:50.265Z,76.20
2019-05-10T19:06:13.070Z,77.00
2019-05-10T19:08:31.582Z,76.90
2019-05-10T19:10:50.917Z,77.90
2019-05-10T19:13:10.873Z,78.60
2019-05-10T19:15:30.566Z,78.20
2019-05-10T19:17:50.176Z,78.00
2019-05-10T19:20:16.374Z,78.70
2019-05-10T19:22:31.522Z,78.90
2019-05-10T19:24:51.168Z,78.70
2019-05-10T19:27:10.793Z,79.10
2019-05-10T19:29:30.514Z,79.50
2019-05-10T19:31:50.117Z,79.80
2019-05-10T19:34:15.415Z,80.30
2019-05-10T19:36:31.593Z,80.00
2019-05-10T19:38:50.941Z,80.00
2019-05-10T19:41:10.533Z,80.10
2019-05-10T19:43:30.061Z,80.40
2019-05-10T19:45:51.086Z,80.20
2019-05-10T19:48:11.293Z,80.20
2019-05-10T19:50:33.037Z,80.80
2019-05-10T19:52:52.365Z,81.20
2019-05-10T19:55:19.571Z,81.20
2019-05-10T19:57:34.028Z,81.40
2019-05-10T19:59:55.892Z,81.90
2019-05-10T20:02:15.794Z,81.80
2019-05-10T20:04:35.454Z,82.90
2019-05-10T20:06:55.157Z,82.40
2019-05-10T20:09:14.873Z,82.30
2019-05-10T20:11:34.918Z,82.30
2019-05-10T20:13:55.250Z,82.60
2019-05-10T20:16:15.118Z,82.90
2019-05-10T20:18:34.921Z,83.00
2019-05-10T20:20:55.205Z,83.50
2019-05-10T20:23:15.041Z,83.70
2019-05-10T20:25:34.895Z,83.70
2019-05-10T20:27:54.725Z,85.00
2019-05-10T20:30:14.898Z,84.30
2019-05-10T20:32:35.068Z,84.40
2019-05-10T20:34:55.105Z,84.20
2019-05-10T20:37:15.525Z,84.20
2019-05-10T20:39:35.762Z,83.50
2019-05-10T20:41:56.246Z,85.10
2019-05-10T20:44:18.112Z,84.40
2019-05-10T20:46:37.909Z,83.10
2019-05-10T20:48:57.873Z,84.30
2019-05-10T20:51:17.827Z,85.10
2019-05-10T20:53:38.142Z,84.70
2019-05-10T20:55:58.262Z,84.50
2019-05-10T20:58:18.142Z,84.60
2019-05-10T21:00:38.866Z,83.90
2019-05-10T21:02:58.883Z,84.60
2019-05-10T21:05:18.922Z,85.00
2019-05-10T21:07:38.460Z,85.40
2019-05-10T21:09:58.282Z,85.60
2019-05-10T21:12:18.077Z,85.70
2019-05-10T21:14:37.876Z,86.60
2019-05-10T21:16:58.009Z,85.90
2019-05-10T21:19:20.102Z,86.10
2019-05-10T21:21:39.925Z,86.30
2019-05-10T21:23:59.880Z,85.50
2019-05-10T21:26:19.592Z,86.70
2019-05-10T21:28:39.552Z,86.20
2019-05-10T21:30:59.227Z,87.10
2019-05-10T21:33:19.262Z,86.00
2019-05-10T21:35:39.313Z,86.00
2019-05-10T21:37:59.481Z,86.20
2019-05-10T21:40:19.333Z,86.70
2019-05-10T21:42:39.231Z,86.70
2019-05-10T21:44:59.239Z,87.10
2019-05-10T21:47:18.744Z,87.10
2019-05-10T21:49:38.876Z,86.70
2019-05-10T21:51:58.597Z,86.50
2019-05-10T21:54:18.667Z,86.50
2019-05-10T21:56:38.794Z,86.70
2019-05-10T21:58:58.636Z,87.00
2019-05-10T22:01:18.586Z,87.00
2019-05-10T22:03:38.312Z,88.20
2019-05-10T22:05:58.133Z,87.10
2019-05-10T22:08:17.840Z,86.70
2019-05-10T22:10:38.006Z,87.90
2019-05-10T22:12:58.121Z,87.30
2019-05-10T22:15:18.057Z,87.00
2019-05-10T22:17:37.603Z,87.20
2019-05-10T22:19:57.238Z,86.20
2019-05-10T22:22:17.286Z,86.50
2019-05-10T22:24:37.093Z,86.70
2019-05-10T22:26:56.867Z,86.70
2019-05-10T22:29:16.622Z,86.60
2019-05-10T22:31:36.696Z,86.50
2019-05-10T22:33:56.249Z,86.70
2019-05-10T22:36:16.134Z,86.90
2019-05-10T22:38:35.958Z,87.10
2019-05-10T22:40:55.885Z,86.70
2019-05-10T22:43:16.300Z,86.50
2019-05-10T22:45:36.909Z,86.50
2019-05-10T22:47:56.525Z,86.40
2019-05-10T22:50:16.427Z,86.10
2019-05-10T22:52:36.327Z,86.00
2019-05-10T22:54:56.092Z,86.40
2019-05-10T22:57:15.769Z,87.90
2019-05-10T22:59:35.584Z,90.30
2019-05-10T23:01:55.429Z,89.30
2019-05-10T23:04:15.423Z,88.40
2019-05-10T23:06:34.837Z,87.60
2019-05-10T23:08:54.621Z,87.40
2019-05-10T23:11:14.481Z,86.60
2019-05-10T23:13:34.620Z,86.00
2019-05-10T23:15:54.558Z,86.20
2019-05-10T23:18:15.393Z,85.80
2019-05-10T23:20:35.329Z,86.50
2019-05-10T23:22:55.360Z,87.10
2019-05-10T23:25:15.313Z,88.10
2019-05-10T23:27:35.542Z,87.40
2019-05-10T23:29:55.098Z,88.30
2019-05-10T23:32:14.929Z,88.60
2019-05-10T23:34:34.905Z,89.50
2019-05-10T23:36:55.250Z,89.90
2019-05-10T23:39:15.313Z,90.00
2019-05-10T23:41:35.291Z,89.50
2019-05-10T23:43:55.393Z,89.90
2019-05-10T23:46:15.393Z,90.00
2019-05-10T23:48:35.158Z,89.10
2019-05-10T23:50:54.854Z,89.00
2019-05-10T23:53:14.600Z,88.90
2019-05-10T23:55:34.361Z,89.20
2019-05-10T23:57:54.196Z,88.10
